createdAt,value
2017-12-06T00:00:58.543Z,6.50
2017-12-06T00:03:26.013Z,6.50
2017-12-06T00:05:53.480Z,6.50
2017-12-06T00:08:20.940Z,6.50
2017-12-06T00:10:48.412Z,6.50
2017-12-06T00:13:21.510Z,6.60
2017-12-06T00:15:49.756Z,6.60
2017-12-06T00:18:17.216Z,6.50
2017-12-06T00:20:44.758Z,6.50
2017-12-06T00:23:12.937Z,6.50
2017-12-06T00:25:40.396Z,6.50
2017-12-06T00:28:07.872Z,6.50
2017-12-06T00:30:35.336Z,6.60
2017-12-06T00:33:03.588Z,6.50
2017-12-06T00:35:31.042Z,6.50
2017-12-06T00:37:58.511Z,6.60
2017-12-06T00:40:25.980Z,6.60
2017-12-06T00:42:53.447Z,6.60
2017-12-06T00:45:21.687Z,6.60
2017-12-06T00:47:49.155Z,6.60
2017-12-06T00:50:16.620Z,6.60
2017-12-06T00:52:44.087Z,6.50
2017-12-06T00:55:11.543Z,6.50
2017-12-06T00:57:39.023Z,6.60
2017-12-06T01:00:06.480Z,6.60
2017-12-06T01:02:33.952Z,6.50
2017-12-06T01:05:01.415Z,6.60
2017-12-06T01:07:28.891Z,6.50
2017-12-06T01:09:56.347Z,6.60
2017-12-06T01:12:23.829Z,6.50
2017-12-06T01:14:51.911Z,6.50
2017-12-06T01:17:20.172Z,6.50
2017-12-06T01:19:47.631Z,6.50
2017-12-06T01:22:15.188Z,6.50
2017-12-06T01:24:42.643Z,6.50
2017-12-06T01:27:10.119Z,6.50
2017-12-06T01:29:38.352Z,6.50
2017-12-06T01:32:05.826Z,6.50
2017-12-06T01:34:33.288Z,6.50
2017-12-06T01:37:00.746Z,6.40
2017-12-06T01:39:28.220Z,6.50
2017-12-06T01:41:56.448Z,6.50
2017-12-06T01:44:23.915Z,6.50
2017-12-06T01:46:51.375Z,6.50
2017-12-06T01:49:18.847Z,6.40
2017-12-06T01:51:46.312Z,6.40
2017-12-06T01:54:13.815Z,6.50
2017-12-06T01:56:41.319Z,6.50
2017-12-06T01:59:08.800Z,6.50
2017-12-06T02:01:37.019Z,6.40
2017-12-06T02:04:04.497Z,6.40
2017-12-06T02:06:31.964Z,6.40
2017-12-06T02:08:59.432Z,6.40
2017-12-06T02:11:27.348Z,6.40
2017-12-06T02:13:54.824Z,6.40
2017-12-06T02:16:22.302Z,6.40
2017-12-06T02:18:49.777Z,6.40
2017-12-06T02:21:17.235Z,6.40
2017-12-06T02:23:45.475Z,6.40
2017-12-06T02:26:12.936Z,6.40
2017-12-06T02:28:40.511Z,6.40
2017-12-06T02:31:08.088Z,6.40
2017-12-06T02:33:36.333Z,6.40
2017-12-06T02:36:04.560Z,6.40
2017-12-06T02:38:32.039Z,6.40
2017-12-06T02:41:11.411Z,6.40
2017-12-06T02:43:50.832Z,6.40
2017-12-06T02:46:18.291Z,6.40
2017-12-06T02:48:45.868Z,6.40
2017-12-06T02:51:13.328Z,6.40
2017-12-06T02:53:40.816Z,6.50
2017-12-06T02:56:08.280Z,6.50
2017-12-06T02:58:35.744Z,6.40
2017-12-06T03:01:03.219Z,6.40
2017-12-06T03:03:30.691Z,6.40
2017-12-06T03:05:58.163Z,6.40
2017-12-06T03:08:25.631Z,6.30
2017-12-06T03:10:54.615Z,6.30
2017-12-06T03:13:22.080Z,6.40
2017-12-06T03:15:49.556Z,6.30
2017-12-06T03:18:17.843Z,6.40
2017-12-06T03:20:45.463Z,6.40
2017-12-06T03:23:12.923Z,6.40
2017-12-06T03:25:40.484Z,6.40
2017-12-06T03:28:08.043Z,6.40
2017-12-06T03:30:35.518Z,6.40
2017-12-06T03:33:03.776Z,6.40
2017-12-06T03:35:31.247Z,6.30
2017-12-06T03:37:59.470Z,6.30
2017-12-06T03:40:27.009Z,6.30
2017-12-06T03:42:54.421Z,6.30
2017-12-06T03:45:21.892Z,6.40
2017-12-06T03:47:49.353Z,6.40
2017-12-06T03:50:17.592Z,6.30
2017-12-06T03:52:45.052Z,6.30
2017-12-06T03:55:12.519Z,6.30
2017-12-06T03:57:39.979Z,6.30
2017-12-06T04:00:07.456Z,6.30
2017-12-06T04:02:35.684Z,6.30
2017-12-06T04:05:03.174Z,6.30
2017-12-06T04:07:30.638Z,6.30
2017-12-06T04:09:58.099Z,6.30
2017-12-06T04:12:26.366Z,6.30
2017-12-06T04:14:53.868Z,6.30
2017-12-06T04:17:21.331Z,6.30
2017-12-06T04:19:48.792Z,6.30
2017-12-06T04:22:16.268Z,6.30
2017-12-06T04:24:43.724Z,6.30
2017-12-06T04:27:11.194Z,6.30
2017-12-06T04:29:38.656Z,6.30
2017-12-06T04:32:06.132Z,6.30
2017-12-06T04:34:34.351Z,6.20
2017-12-06T04:37:01.828Z,6.20
2017-12-06T04:39:30.055Z,6.30
2017-12-06T04:41:58.294Z,6.30
2017-12-06T04:44:25.760Z,6.20
2017-12-06T04:46:53.235Z,6.30
2017-12-06T04:49:21.460Z,6.30
2017-12-06T04:51:48.938Z,6.30
2017-12-06T04:54:17.167Z,6.20
2017-12-06T04:56:44.640Z,6.20
2017-12-06T04:59:12.136Z,6.20
2017-12-06T05:01:39.691Z,6.20
2017-12-06T05:04:07.157Z,6.30
2017-12-06T05:06:34.711Z,6.30
2017-12-06T05:09:02.167Z,6.20
2017-12-06T05:11:30.399Z,6.20
2017-12-06T05:13:57.900Z,6.20
2017-12-06T05:16:25.376Z,6.20
2017-12-06T05:18:53.627Z,6.20
2017-12-06T05:21:21.116Z,6.20
2017-12-06T05:23:49.375Z,6.20
2017-12-06T05:26:16.827Z,6.20
2017-12-06T05:28:44.382Z,6.30
2017-12-06T05:31:11.890Z,6.30
2017-12-06T05:33:39.363Z,6.30
2017-12-06T05:36:06.851Z,6.30
2017-12-06T05:38:34.416Z,6.20
2017-12-06T05:41:01.880Z,6.30
2017-12-06T05:43:30.555Z,6.20
2017-12-06T05:45:58.024Z,6.20
2017-12-06T05:48:26.270Z,6.30
2017-12-06T05:50:53.732Z,6.30
2017-12-06T05:53:21.207Z,6.30
2017-12-06T05:55:48.755Z,6.40
2017-12-06T05:58:16.315Z,6.40
2017-12-06T06:00:43.892Z,6.30
2017-12-06T06:03:12.136Z,6.40
2017-12-06T06:05:39.609Z,6.40
2017-12-06T06:08:07.084Z,6.40
2017-12-06T06:10:35.307Z,6.30
2017-12-06T06:13:02.779Z,6.30
2017-12-06T06:15:30.243Z,6.30
2017-12-06T06:17:57.720Z,6.40
2017-12-06T06:20:25.968Z,6.40
2017-12-06T06:22:53.440Z,6.40
2017-12-06T06:25:20.916Z,6.40
2017-12-06T06:27:49.423Z,6.40
2017-12-06T06:30:16.884Z,6.40
2017-12-06T06:32:44.368Z,6.40
2017-12-06T06:35:11.921Z,6.40
2017-12-06T06:37:39.516Z,6.50
2017-12-06T06:40:06.980Z,6.40
2017-12-06T06:42:34.443Z,6.40
2017-12-06T06:45:02.685Z,6.40
2017-12-06T06:47:30.147Z,6.40
2017-12-06T06:49:57.849Z,6.50
2017-12-06T06:52:26.076Z,6.50
2017-12-06T06:54:53.657Z,6.50
2017-12-06T06:57:22.440Z,6.50
2017-12-06T06:59:50.023Z,6.40
2017-12-06T07:02:18.259Z,6.50
2017-12-06T07:04:45.741Z,6.50
2017-12-06T07:07:13.204Z,6.50
2017-12-06T07:09:40.752Z,6.50
2017-12-06T07:12:08.215Z,6.50
2017-12-06T07:14:35.700Z,6.40
2017-12-06T07:17:03.934Z,6.40
2017-12-06T07:19:37.005Z,6.40
2017-12-06T07:22:04.468Z,6.40
2017-12-06T07:24:31.944Z,6.50
2017-12-06T07:26:59.410Z,6.50
2017-12-06T07:29:26.883Z,6.50
2017-12-06T07:31:55.112Z,6.50
2017-12-06T07:34:22.588Z,6.50
2017-12-06T07:36:50.051Z,6.50
2017-12-06T07:39:17.528Z,6.60
2017-12-06T07:41:45.832Z,6.50
2017-12-06T07:44:13.300Z,6.50
2017-12-06T07:46:40.760Z,6.50
2017-12-06T07:49:08.232Z,6.50
2017-12-06T07:51:35.697Z,6.50
2017-12-06T07:54:03.163Z,6.60
2017-12-06T07:56:30.657Z,6.50
2017-12-06T07:59:00.676Z,6.60
2017-12-06T08:01:28.140Z,6.60
2017-12-06T08:03:55.624Z,6.60
2017-12-06T08:06:23.083Z,6.50
2017-12-06T08:08:50.540Z,6.60
2017-12-06T08:11:18.018Z,6.60
2017-12-06T08:13:45.484Z,6.60
2017-12-06T08:16:12.960Z,6.60
2017-12-06T08:18:41.189Z,6.60
2017-12-06T08:21:08.667Z,6.60
2017-12-06T08:23:36.133Z,6.60
2017-12-06T08:26:03.609Z,6.70
2017-12-06T08:28:31.840Z,6.60
2017-12-06T08:30:59.316Z,6.60
2017-12-06T08:33:26.774Z,6.60
2017-12-06T08:35:54.251Z,6.70
2017-12-06T08:38:22.481Z,6.70
2017-12-06T08:40:49.967Z,6.70
2017-12-06T08:43:17.424Z,6.70
2017-12-06T08:45:44.897Z,6.70
2017-12-06T08:48:13.348Z,6.80
2017-12-06T08:50:40.840Z,6.80
2017-12-06T08:53:09.067Z,6.80
2017-12-06T08:55:36.563Z,6.80
2017-12-06T08:58:04.012Z,6.80
2017-12-06T09:00:31.479Z,6.80
2017-12-06T09:02:59.712Z,6.90
2017-12-06T09:05:27.188Z,6.80
2017-12-06T09:07:54.658Z,6.80
2017-12-06T09:10:22.154Z,6.90
2017-12-06T09:12:49.620Z,6.90
2017-12-06T09:15:17.083Z,6.90
2017-12-06T09:17:44.560Z,6.90
2017-12-06T09:20:12.015Z,6.90
2017-12-06T09:22:39.540Z,6.90
2017-12-06T09:25:06.992Z,6.90
2017-12-06T09:27:34.489Z,6.90
2017-12-06T09:30:01.948Z,6.90
2017-12-06T09:32:29.419Z,6.90
2017-12-06T09:34:56.879Z,6.90
2017-12-06T09:37:24.352Z,7.00
2017-12-06T09:39:52.582Z,7.00
2017-12-06T09:42:20.052Z,7.00
2017-12-06T09:44:47.507Z,6.90
2017-12-06T09:47:14.976Z,6.90
2017-12-06T09:49:42.460Z,7.00
2017-12-06T09:52:10.695Z,7.00
2017-12-06T09:54:38.155Z,7.00
2017-12-06T09:57:05.626Z,7.00
2017-12-06T09:59:33.083Z,7.00
2017-12-06T10:02:00.557Z,7.00
2017-12-06T10:04:28.780Z,7.00
2017-12-06T10:06:56.252Z,7.00
2017-12-06T10:09:23.711Z,7.00
2017-12-06T10:11:51.709Z,7.10
2017-12-06T10:14:19.938Z,7.10
2017-12-06T10:16:47.419Z,7.10
2017-12-06T10:19:14.917Z,7.10
2017-12-06T10:21:42.432Z,7.10
2017-12-06T10:24:09.897Z,7.00
2017-12-06T10:26:37.402Z,7.10
2017-12-06T10:29:04.884Z,7.10
2017-12-06T10:31:32.348Z,7.20
2017-12-06T10:33:59.815Z,7.10
2017-12-06T10:36:28.044Z,7.10
2017-12-06T10:38:55.508Z,7.10
2017-12-06T10:41:22.977Z,7.10
2017-12-06T10:43:50.447Z,7.10
2017-12-06T10:46:17.923Z,7.10
2017-12-06T10:48:45.391Z,7.10
2017-12-06T10:51:12.880Z,7.20
2017-12-06T10:53:40.345Z,7.30
2017-12-06T10:56:08.808Z,7.30
2017-12-06T10:58:37.221Z,7.20
2017-12-06T11:01:04.700Z,7.20
2017-12-06T11:03:32.164Z,7.30
2017-12-06T11:05:59.643Z,7.20
2017-12-06T11:08:27.096Z,7.20
2017-12-06T11:10:54.569Z,7.20
2017-12-06T11:13:22.796Z,7.30
2017-12-06T11:15:50.268Z,7.30
2017-12-06T11:18:19.680Z,7.30
2017-12-06T11:20:47.147Z,7.30
2017-12-06T11:23:14.604Z,7.30
2017-12-06T11:25:42.072Z,7.30
2017-12-06T11:28:10.292Z,7.40
2017-12-06T11:30:37.780Z,7.30
2017-12-06T11:33:05.249Z,7.30
2017-12-06T11:35:32.747Z,7.30
2017-12-06T11:38:00.180Z,7.30
2017-12-06T11:40:28.399Z,7.40
2017-12-06T11:42:55.871Z,7.30
2017-12-06T11:45:23.343Z,7.30
2017-12-06T11:47:50.809Z,7.40
2017-12-06T11:50:18.271Z,7.30
2017-12-06T11:52:45.739Z,7.30
2017-12-06T11:55:13.956Z,7.30
2017-12-06T11:57:41.427Z,7.20
2017-12-06T12:00:12.881Z,7.30
2017-12-06T12:02:40.355Z,7.30
2017-12-06T12:05:07.820Z,7.40
2017-12-06T12:07:35.339Z,7.40
2017-12-06T12:10:03.524Z,7.40
2017-12-06T12:12:30.997Z,7.30
2017-12-06T12:14:58.484Z,7.40
2017-12-06T12:17:26.727Z,7.40
2017-12-06T12:19:54.182Z,7.40
2017-12-06T12:22:22.614Z,7.50
2017-12-06T12:24:50.069Z,7.40
2017-12-06T12:27:17.535Z,7.40
2017-12-06T12:29:45.000Z,7.40
2017-12-06T12:32:12.471Z,7.40
2017-12-06T12:34:39.936Z,7.40
2017-12-06T12:37:08.164Z,7.40
2017-12-06T12:39:35.624Z,7.40
2017-12-06T12:42:03.100Z,7.50
2017-12-06T12:44:30.563Z,7.50
2017-12-06T12:46:58.048Z,7.50
2017-12-06T12:49:25.510Z,7.60
2017-12-06T12:51:52.980Z,7.50
2017-12-06T12:54:20.460Z,7.60
2017-12-06T12:56:47.924Z,7.60
2017-12-06T12:59:15.400Z,7.50
2017-12-06T13:01:42.853Z,7.60
2017-12-06T13:04:10.325Z,7.50
2017-12-06T13:06:37.784Z,7.60
2017-12-06T13:09:05.260Z,7.60
2017-12-06T13:11:32.720Z,7.60
2017-12-06T13:14:00.195Z,7.60
2017-12-06T13:16:27.655Z,7.60
2017-12-06T13:18:55.900Z,7.50
2017-12-06T13:21:23.377Z,7.50
2017-12-06T13:23:50.847Z,7.40
2017-12-06T13:26:19.080Z,7.40
2017-12-06T13:28:46.559Z,7.40
2017-12-06T13:31:14.112Z,7.40
2017-12-06T13:33:41.592Z,7.50
2017-12-06T13:36:09.039Z,7.50
2017-12-06T13:38:36.525Z,7.40
2017-12-06T13:41:03.982Z,7.50
2017-12-06T13:43:32.220Z,7.40
2017-12-06T13:45:59.688Z,7.40
2017-12-06T13:48:27.244Z,7.40
2017-12-06T13:50:54.700Z,7.50
2017-12-06T13:53:22.176Z,7.50
2017-12-06T13:55:50.407Z,7.50
2017-12-06T13:58:17.889Z,7.50
2017-12-06T14:00:45.450Z,7.40
2017-12-06T14:03:13.003Z,7.40
2017-12-06T14:05:40.460Z,7.40
2017-12-06T14:08:07.915Z,7.40
2017-12-06T14:10:35.468Z,7.30
2017-12-06T14:13:02.932Z,7.40
2017-12-06T14:15:30.403Z,7.30
2017-12-06T14:17:58.631Z,7.30
2017-12-06T14:20:26.104Z,7.30
2017-12-06T14:22:53.564Z,7.40
2017-12-06T14:25:21.040Z,7.40
2017-12-06T14:27:48.497Z,7.40
2017-12-06T14:30:15.969Z,7.40
2017-12-06T14:32:44.191Z,7.40
2017-12-06T14:35:11.668Z,7.30
2017-12-06T14:37:39.128Z,7.40
2017-12-06T14:40:06.646Z,7.40
2017-12-06T14:42:34.207Z,7.40
2017-12-06T14:45:01.685Z,7.40
2017-12-06T14:47:29.152Z,7.30
2017-12-06T14:49:56.612Z,7.40
2017-12-06T14:52:24.072Z,7.40
2017-12-06T14:54:51.552Z,7.40
2017-12-06T14:57:19.780Z,7.40
2017-12-06T14:59:47.244Z,7.30
2017-12-06T15:02:14.706Z,7.30
2017-12-06T15:04:42.170Z,7.30
2017-12-06T15:07:09.632Z,7.30
2017-12-06T15:09:37.095Z,7.30
2017-12-06T15:12:04.668Z,7.30
2017-12-06T15:14:32.140Z,7.40
2017-12-06T15:17:00.370Z,7.40
2017-12-06T15:19:27.840Z,7.40
2017-12-06T15:21:55.300Z,7.40
2017-12-06T15:24:22.776Z,7.40
2017-12-06T15:26:51.007Z,7.40
2017-12-06T15:29:18.476Z,7.30
2017-12-06T15:31:45.932Z,7.30
2017-12-06T15:34:13.399Z,7.30
2017-12-06T15:36:40.864Z,7.40
2017-12-06T15:39:08.327Z,7.40
2017-12-06T15:41:35.783Z,7.40
2017-12-06T15:44:03.260Z,7.30
2017-12-06T15:46:31.483Z,7.40
2017-12-06T15:48:58.951Z,7.40
2017-12-06T15:51:26.424Z,7.50
2017-12-06T15:53:53.893Z,7.40
2017-12-06T15:56:22.121Z,7.40
2017-12-06T15:58:49.612Z,7.40
2017-12-06T16:01:17.068Z,7.40
2017-12-06T16:03:44.532Z,7.40
2017-12-06T16:06:12.008Z,7.40
2017-12-06T16:08:40.240Z,7.40
2017-12-06T16:11:07.705Z,7.40
2017-12-06T16:13:35.168Z,7.40
2017-12-06T16:16:02.639Z,7.40
2017-12-06T16:18:30.099Z,7.50
2017-12-06T16:20:58.339Z,7.50
2017-12-06T16:23:26.187Z,7.40
2017-12-06T16:25:53.648Z,7.50
2017-12-06T16:28:21.114Z,7.50
2017-12-06T16:30:48.585Z,7.50
2017-12-06T16:33:16.094Z,7.50
2017-12-06T16:35:55.402Z,7.60
2017-12-06T16:38:23.716Z,7.60
2017-12-06T16:40:51.192Z,7.60
2017-12-06T16:43:18.651Z,7.60
2017-12-06T16:45:46.124Z,7.60
2017-12-06T16:48:13.581Z,7.50
2017-12-06T16:50:41.039Z,7.50
2017-12-06T16:53:13.485Z,7.50
2017-12-06T16:55:40.945Z,7.50
2017-12-06T16:58:08.420Z,7.50
2017-12-06T17:00:35.875Z,7.50
2017-12-06T17:03:03.522Z,7.60
2017-12-06T17:05:30.971Z,7.50
2017-12-06T17:07:58.439Z,7.50
2017-12-06T17:10:25.898Z,7.50
2017-12-06T17:12:53.378Z,7.60
2017-12-06T17:15:20.838Z,7.60
2017-12-06T17:17:48.305Z,7.60
2017-12-06T17:20:15.760Z,7.60
2017-12-06T17:22:43.239Z,7.60
2017-12-06T17:25:11.463Z,7.60
2017-12-06T17:27:38.932Z,7.60
2017-12-06T17:33:03.727Z,7.50
2017-12-06T17:35:31.265Z,7.50
2017-12-06T17:37:58.723Z,7.60
2017-12-06T17:40:26.202Z,7.60
2017-12-06T17:42:53.672Z,7.60
2017-12-06T17:45:21.127Z,7.60
2017-12-06T17:47:48.599Z,7.60
2017-12-06T17:50:24.813Z,7.60
2017-12-06T17:52:52.279Z,7.60
2017-12-06T17:55:19.740Z,7.60
2017-12-06T17:57:47.212Z,7.60
2017-12-06T18:00:14.672Z,7.60
2017-12-06T18:02:42.136Z,7.70
2017-12-06T18:05:09.605Z,7.70
2017-12-06T18:07:37.055Z,7.70
2017-12-06T18:10:04.523Z,7.70
2017-12-06T18:12:31.983Z,7.70
2017-12-06T18:15:00.224Z,7.70
2017-12-06T18:17:27.684Z,7.60
2017-12-06T18:19:55.154Z,7.60
2017-12-06T18:22:22.671Z,7.60
2017-12-06T18:24:50.136Z,7.60
2017-12-06T18:27:17.603Z,7.70
2017-12-06T18:29:45.094Z,7.70
2017-12-06T18:32:12.604Z,7.70
2017-12-06T18:34:40.077Z,7.70
2017-12-06T18:37:07.763Z,7.70
2017-12-06T18:39:35.236Z,7.60
2017-12-06T18:42:02.796Z,7.70
2017-12-06T18:44:30.309Z,7.70
2017-12-06T18:46:57.802Z,7.70
2017-12-06T18:49:25.460Z,7.60
2017-12-06T18:51:53.011Z,7.60
2017-12-06T18:54:20.951Z,7.60
2017-12-06T18:56:48.452Z,7.60
2017-12-06T18:59:15.923Z,7.60
2017-12-06T19:01:44.148Z,7.60
2017-12-06T19:04:11.619Z,7.60
2017-12-06T19:06:39.090Z,7.60
2017-12-06T19:09:06.550Z,7.60
2017-12-06T19:11:35.555Z,7.70
2017-12-06T19:14:03.008Z,7.70
2017-12-06T19:16:30.492Z,7.70
2017-12-06T19:18:58.640Z,7.60
2017-12-06T19:21:26.116Z,7.70
2017-12-06T19:23:54.348Z,7.60
2017-12-06T19:26:21.824Z,7.60
2017-12-06T19:28:49.302Z,7.60
2017-12-06T19:31:17.542Z,7.60
2017-12-06T19:33:45.008Z,7.60
2017-12-06T19:36:12.485Z,7.60
2017-12-06T19:38:40.712Z,7.60
2017-12-06T19:41:08.196Z,7.60
2017-12-06T19:43:35.660Z,7.60
2017-12-06T19:46:03.136Z,7.60
2017-12-06T19:48:31.366Z,7.60
2017-12-06T19:50:58.834Z,7.60
2017-12-06T19:53:26.296Z,7.60
2017-12-06T19:55:53.806Z,7.60
2017-12-06T19:58:21.312Z,7.60
2017-12-06T20:00:48.871Z,7.60
2017-12-06T20:03:16.363Z,7.60
2017-12-06T20:05:44.631Z,7.60
2017-12-06T20:08:12.871Z,7.60
2017-12-06T20:10:40.345Z,7.60
2017-12-06T20:13:07.804Z,7.60
2017-12-06T20:15:35.276Z,7.60
2017-12-06T20:18:03.496Z,7.60
2017-12-06T20:20:30.982Z,7.60
2017-12-06T20:22:58.440Z,7.60
2017-12-06T20:25:25.895Z,7.60
2017-12-06T20:27:53.368Z,7.60
2017-12-06T20:30:21.586Z,7.60
2017-12-06T20:32:49.059Z,7.60
2017-12-06T20:35:16.521Z,7.60
2017-12-06T20:37:44.755Z,7.60
2017-12-06T20:40:12.224Z,7.60
2017-12-06T20:42:39.697Z,7.70
2017-12-06T20:45:07.159Z,7.70
2017-12-06T20:47:34.637Z,7.70
2017-12-06T20:50:02.091Z,7.70
2017-12-06T20:52:29.568Z,7.70
2017-12-06T20:54:57.029Z,7.70
2017-12-06T20:57:24.499Z,7.70
2017-12-06T20:59:52.822Z,7.70
2017-12-06T21:02:20.287Z,7.70
2017-12-06T21:04:47.752Z,7.70
2017-12-06T21:07:15.228Z,7.70
2017-12-06T21:09:42.695Z,7.70
2017-12-06T21:12:10.934Z,7.70
2017-12-06T21:14:38.392Z,7.70
2017-12-06T21:17:05.868Z,7.70
2017-12-06T21:19:33.343Z,7.70
2017-12-06T21:22:01.579Z,7.70
2017-12-06T21:24:29.035Z,7.70
2017-12-06T21:26:56.526Z,7.70
2017-12-06T21:29:23.989Z,7.70
2017-12-06T21:31:52.228Z,7.70
2017-12-06T21:34:19.697Z,7.70
2017-12-06T21:36:47.175Z,7.70
2017-12-06T21:39:15.416Z,7.70
2017-12-06T21:41:43.923Z,7.70
2017-12-06T21:44:11.483Z,7.60
2017-12-06T21:46:39.292Z,7.70
2017-12-06T21:49:06.773Z,7.70
2017-12-06T21:51:34.236Z,7.70
2017-12-06T21:54:01.716Z,7.70
2017-12-06T21:56:29.985Z,7.70
2017-12-06T21:58:57.495Z,7.60
2017-12-06T22:01:24.992Z,7.60
2017-12-06T22:03:52.563Z,7.50
2017-12-06T22:06:20.057Z,7.60
2017-12-06T22:08:47.583Z,7.60
2017-12-06T22:11:15.052Z,7.60
2017-12-06T22:13:42.607Z,7.60
2017-12-06T22:16:10.055Z,7.60
2017-12-06T22:18:37.530Z,7.50
2017-12-06T22:21:05.766Z,7.60
2017-12-06T22:23:33.234Z,7.50
2017-12-06T22:26:00.704Z,7.50
2017-12-06T22:28:28.175Z,7.50
2017-12-06T22:30:56.399Z,7.50
2017-12-06T22:33:23.871Z,7.50
2017-12-06T22:35:51.336Z,7.50
2017-12-06T22:38:18.814Z,7.50
2017-12-06T22:40:46.264Z,7.50
2017-12-06T22:43:13.735Z,7.50
2017-12-06T22:45:41.965Z,7.50
2017-12-06T22:48:10.192Z,7.50
2017-12-06T22:50:38.424Z,7.40
2017-12-06T22:53:05.889Z,7.40
2017-12-06T22:55:33.364Z,7.40
2017-12-06T22:58:01.592Z,7.40
2017-12-06T23:00:29.095Z,7.40
2017-12-06T23:02:57.319Z,7.40
2017-12-06T23:05:24.787Z,7.40
2017-12-06T23:07:52.251Z,7.40
2017-12-06T23:10:19.730Z,7.30
2017-12-06T23:12:47.191Z,7.40
2017-12-06T23:15:14.651Z,7.40
2017-12-06T23:17:42.107Z,7.40
2017-12-06T23:20:09.575Z,7.40
2017-12-06T23:22:37.808Z,7.30
2017-12-06T23:25:05.280Z,7.30
2017-12-06T23:27:32.736Z,7.30
2017-12-06T23:30:00.213Z,7.30
2017-12-06T23:32:27.663Z,7.30
2017-12-06T23:34:55.139Z,7.30
2017-12-06T23:37:23.363Z,7.30
2017-12-06T23:39:50.845Z,7.30
2017-12-06T23:42:18.313Z,7.30
2017-12-06T23:44:45.780Z,7.30
2017-12-06T23:47:14.004Z,7.20
2017-12-06T23:49:41.477Z,7.20
2017-12-06T23:52:08.935Z,7.20
2017-12-06T23:54:36.403Z,7.20
2017-12-06T23:57:03.856Z,7.20
2017-12-06T23:59:31.323Z,7.20
